Últimos artigos:
Visita à exposição MOTION no Guggenheim de Bilbao
MSK144, FT8… using an IC-9700 and WSJT-X
Resolvendo um problema de áudio no GNU Radio
Converter um número Real para o formato binário em vírgula flutuante segundo a Norma IEEE-754
VirtualBox sobre Debian 10 (buster) não encontra dispositivos USB
Falta de som no Morse Runner em Linux?
Últimas fotos:
Últimos METARs:
LPAZ 052300Z 13005KT CAVOK 11/09 Q1034=
LPFR 052300Z 02009KT CAVOK 10/02 Q1026=
LPHR 052100Z 14009KT 9999 FEW013 BKN070 16...
LPLA 052300Z /////KT 9999 SCT015 BKN040 16...
LPMA 052300Z 01015KT 9999 SCT016 16/09 Q10...
LPPD 052300Z 15009KT 9999 FEW016 15/12 Q10...
LPPR 052300Z 10008KT CAVOK 11/03 Q1028=
LPPS 052300Z 03012KT 010V070 9999 FEW015 1...
LPPT 052300Z 06006KT CAVOK 12/02 Q1027=
Últimos QSOs:
2022/12/05-18:34 2m CN8JQ (MOHAMED)
2022/12/05-18:31 2m 7X3YOTA (YOUNGSTERS)
2022/12/05-18:29 2m EA7JHK (ANGEL)
2022/12/05-18:28 2m G3OUA (DAVE)
2022/11/06-21:07 2m CT1DMC (RUI)
2022/10/23-20:02 2m CT1ETE (PAULO)
  UTC
Rpi-6 CPU Temp: 0.0 °C (19Z)
IN51oq 2314Z /////KT //// 15/12 Q1028=
353080